createdAt,value
2019-05-13T00:01:35.633Z,10.90
2019-05-13T00:04:05.239Z,10.37
2019-05-13T00:06:34.591Z,10.23
2019-05-13T00:09:06.328Z,10.03
2019-05-13T00:11:35.902Z,9.53
2019-05-13T00:14:05.414Z,10.13
2019-05-13T00:16:34.778Z,9.50
2019-05-13T00:19:04.415Z,9.60
2019-05-13T00:21:34.139Z,9.67
2019-05-13T00:24:04.130Z,10.10
2019-05-13T00:26:33.892Z,9.50
2019-05-13T00:29:04.226Z,9.90
2019-05-13T00:31:33.981Z,9.30
2019-05-13T00:34:03.796Z,9.73
2019-05-13T00:36:33.915Z,9.77
2019-05-13T00:39:05.579Z,10.30
2019-05-13T00:41:35.076Z,10.23
2019-05-13T00:44:05.153Z,10.07
2019-05-13T00:46:34.712Z,9.90
2019-05-13T00:49:05.941Z,9.83
2019-05-13T00:51:35.547Z,10.23
2019-05-13T00:54:04.755Z,10.17
2019-05-13T00:56:34.632Z,9.73
2019-05-13T00:59:04.271Z,9.67
2019-05-13T01:01:33.987Z,9.87
2019-05-13T01:04:04.080Z,9.83
2019-05-13T01:06:34.426Z,10.33
2019-05-13T01:09:06.684Z,10.03
2019-05-13T01:11:36.086Z,11.20
2019-05-13T01:14:05.488Z,11.37
2019-05-13T01:16:34.892Z,10.63
2019-05-13T01:19:04.601Z,11.30
2019-05-13T01:21:34.590Z,10.67
2019-05-13T01:24:05.187Z,11.20
2019-05-13T01:26:34.759Z,11.67
2019-05-13T01:29:06.401Z,10.30
2019-05-13T01:31:35.909Z,10.30
2019-05-13T01:34:05.443Z,10.50
2019-05-13T01:36:34.975Z,11.37
2019-05-13T01:39:06.150Z,11.40
2019-05-13T01:41:35.560Z,11.50
2019-05-13T01:44:05.065Z,11.07
2019-05-13T01:46:34.823Z,9.60
2019-05-13T01:49:07.351Z,9.83
2019-05-13T01:51:36.853Z,9.00
2019-05-13T01:54:06.089Z,10.57
2019-05-13T01:56:35.554Z,10.20
2019-05-13T01:59:04.763Z,10.37
2019-05-13T02:01:34.255Z,11.63
2019-05-13T02:04:04.230Z,12.00
2019-05-13T02:06:34.104Z,11.17
2019-05-13T02:09:05.428Z,11.03
2019-05-13T02:11:34.871Z,9.83
2019-05-13T02:14:05.717Z,11.70
2019-05-13T02:16:35.387Z,11.33
2019-05-13T02:19:04.785Z,11.80
2019-05-13T02:21:34.185Z,11.03
2019-05-13T02:24:04.286Z,10.57
2019-05-13T02:26:34.545Z,11.30
2019-05-13T02:29:04.655Z,11.33
2019-05-13T02:31:46.155Z,11.00
2019-05-13T02:34:05.294Z,11.37
2019-05-13T02:36:34.888Z,10.10
2019-05-13T02:39:06.749Z,11.33
2019-05-13T02:41:36.390Z,10.10
2019-05-13T02:44:06.795Z,10.63
2019-05-13T02:46:37.200Z,10.90
2019-05-13T02:49:08.456Z,10.97
2019-05-13T02:51:37.954Z,12.27
2019-05-13T02:54:07.565Z,13.53
2019-05-13T02:56:37.039Z,11.40
2019-05-13T02:59:06.516Z,12.53
2019-05-13T03:01:36.237Z,11.87
2019-05-13T03:04:05.682Z,11.83
2019-05-13T03:06:35.083Z,13.13
2019-05-13T03:09:07.637Z,12.43
2019-05-13T03:11:37.058Z,12.90
2019-05-13T03:14:06.363Z,13.03
2019-05-13T03:16:54.330Z,12.57
2019-05-13T03:19:23.806Z,14.50
2019-05-13T03:21:53.194Z,13.83
2019-05-13T03:24:23.103Z,14.30
2019-05-13T03:26:53.950Z,13.63
2019-05-13T03:29:23.328Z,13.80
2019-05-13T03:31:55.641Z,14.00
2019-05-13T03:35:55.042Z,13.00
2019-05-13T03:38:22.565Z,13.63
2019-05-13T03:40:52.710Z,14.73
2019-05-13T03:43:23.156Z,14.40
2019-05-13T03:46:13.228Z,14.30
2019-05-13T03:48:43.173Z,13.57
2019-05-13T03:51:13.537Z,12.50
2019-05-13T03:56:32.786Z,12.23
2019-05-13T03:59:03.042Z,14.27
2019-05-13T04:01:32.856Z,13.17
2019-05-13T04:04:03.260Z,12.57
2019-05-13T04:06:32.780Z,12.90
2019-05-13T04:09:20.908Z,11.97
2019-05-13T04:11:33.559Z,13.07
2019-05-13T04:14:03.499Z,13.03
2019-05-13T04:16:34.428Z,13.53
2019-05-13T04:19:03.916Z,13.30
2019-05-13T04:21:33.954Z,12.60
2019-05-13T04:24:04.210Z,11.77
2019-05-13T04:26:33.788Z,13.40
2019-05-13T04:29:03.364Z,13.70
2019-05-13T04:31:33.463Z,13.37
2019-05-13T04:34:02.997Z,12.33
2019-05-13T04:36:32.698Z,12.90
2019-05-13T04:39:04.767Z,13.23
2019-05-13T04:41:34.375Z,12.60
2019-05-13T04:44:03.939Z,11.13
2019-05-13T04:46:33.591Z,11.73
2019-05-13T04:49:03.061Z,11.47
2019-05-13T04:51:33.065Z,12.93
2019-05-13T04:54:03.086Z,12.37
2019-05-13T04:56:33.101Z,13.23
2019-05-13T04:59:03.148Z,13.53
2019-05-13T05:01:55.395Z,12.17
2019-05-13T05:04:35.161Z,13.83
2019-05-13T05:07:23.063Z,12.87
2019-05-13T05:10:15.919Z,12.80
2019-05-13T05:15:52.510Z,11.97
2019-05-13T05:18:32.685Z,12.50
2019-05-13T05:21:11.900Z,12.00
2019-05-13T05:24:12.940Z,11.93
2019-05-13T05:27:06.909Z,12.03
2019-05-13T05:29:57.711Z,11.30
2019-05-13T05:32:51.849Z,12.67
2019-05-13T05:35:42.737Z,13.33
2019-05-13T05:38:29.002Z,13.07
2019-05-13T05:40:58.897Z,11.57
2019-05-13T05:43:28.415Z,11.10
2019-05-13T05:45:58.022Z,11.97
2019-05-13T05:48:27.321Z,10.03
2019-05-13T05:50:58.779Z,9.90
2019-05-13T05:53:28.274Z,10.33
2019-05-13T05:55:59.432Z,10.30
2019-05-13T05:58:31.558Z,9.57
2019-05-13T06:01:02.595Z,9.33
2019-05-13T06:03:32.760Z,10.40
2019-05-13T06:06:02.250Z,9.53
2019-05-13T06:08:32.356Z,8.70
2019-05-13T06:11:02.295Z,8.60
2019-05-13T06:13:31.667Z,8.83
2019-05-13T06:16:01.810Z,8.40
2019-05-13T06:18:32.504Z,8.07
2019-05-13T06:21:02.317Z,7.80
2019-05-13T06:23:31.819Z,7.67
2019-05-13T06:26:01.962Z,7.77
2019-05-13T06:28:32.253Z,8.33
2019-05-13T06:31:02.539Z,7.43
2019-05-13T06:33:32.218Z,7.00
2019-05-13T06:36:01.615Z,7.17
2019-05-13T06:38:32.256Z,6.17
2019-05-13T06:41:07.915Z,5.57
2019-05-13T06:43:34.029Z,5.50
2019-05-13T06:46:03.627Z,5.27
2019-05-13T06:48:32.963Z,4.47
2019-05-13T06:51:02.693Z,4.97
2019-05-13T06:53:32.381Z,4.90
2019-05-13T06:56:01.900Z,4.00
2019-05-13T06:58:32.522Z,4.47
2019-05-13T07:01:03.626Z,4.70
2019-05-13T07:03:32.921Z,4.60
2019-05-13T07:06:02.526Z,3.90
2019-05-13T07:08:31.823Z,4.60
2019-05-13T07:11:17.204Z,4.57
2019-05-13T07:13:34.213Z,4.60
2019-05-13T07:16:03.406Z,4.23
2019-05-13T07:18:32.822Z,3.83
2019-05-13T07:21:02.415Z,2.93
2019-05-13T07:23:32.084Z,4.67
2019-05-13T07:26:02.765Z,3.60
2019-05-13T07:28:32.521Z,3.60
2019-05-13T07:31:02.423Z,3.07
2019-05-13T07:33:33.131Z,3.47
2019-05-13T07:36:03.342Z,2.57
2019-05-13T07:38:33.427Z,4.07
2019-05-13T07:41:03.267Z,3.90
2019-05-13T07:43:32.687Z,3.00
2019-05-13T07:46:02.373Z,2.97
2019-05-13T07:48:33.079Z,3.03
2019-05-13T07:51:04.685Z,2.83
2019-05-13T07:53:33.710Z,3.13
2019-05-13T07:56:03.373Z,2.40
2019-05-13T07:58:37.170Z,2.60
2019-05-13T08:01:04.780Z,2.53
2019-05-13T08:03:35.661Z,2.97
2019-05-13T08:06:05.170Z,2.00
2019-05-13T08:08:34.566Z,2.33
2019-05-13T08:11:04.251Z,1.90
2019-05-13T08:13:33.781Z,2.70
2019-05-13T08:16:03.381Z,2.50
2019-05-13T08:18:33.196Z,2.53
2019-05-13T08:21:02.721Z,2.17
2019-05-13T08:23:33.236Z,1.90
2019-05-13T08:26:03.245Z,2.30
2019-05-13T08:28:32.709Z,2.00
2019-05-13T08:31:56.123Z,2.37
2019-05-13T08:34:25.436Z,2.33
2019-05-13T08:36:54.725Z,2.13
2019-05-13T08:39:26.944Z,2.30
2019-05-13T08:42:10.274Z,1.70
2019-05-13T08:44:26.540Z,1.90
2019-05-13T08:46:57.444Z,3.40
2019-05-13T08:49:26.847Z,1.63
2019-05-13T08:51:56.245Z,1.73
2019-05-13T08:54:26.860Z,2.40
2019-05-13T08:56:56.344Z,1.73
2019-05-13T08:59:25.890Z,2.17
2019-05-13T09:01:55.614Z,1.80
2019-05-13T09:04:25.306Z,1.50
2019-05-13T09:06:56.796Z,1.83
2019-05-13T09:09:26.357Z,1.80
2019-05-13T09:11:55.660Z,2.20
2019-05-13T09:15:58.447Z,1.40
2019-05-13T09:18:27.887Z,2.33
2019-05-13T09:20:57.359Z,1.90
2019-05-13T09:23:26.857Z,2.17
2019-05-13T09:25:56.361Z,1.63
2019-05-13T09:28:25.782Z,1.93
2019-05-13T09:30:55.375Z,1.90
2019-05-13T09:33:24.842Z,1.90
2019-05-13T09:35:54.299Z,1.90
2019-05-13T09:38:23.596Z,1.43
2019-05-13T09:40:53.377Z,1.63
2019-05-13T09:43:22.899Z,1.50
2019-05-13T09:45:52.656Z,1.47
2019-05-13T09:48:22.904Z,2.00
2019-05-13T09:50:53.452Z,2.20
2019-05-13T09:53:23.121Z,2.10
2019-05-13T09:55:52.579Z,2.30
2019-05-13T09:58:22.617Z,1.73
2019-05-13T10:00:53.068Z,1.87
2019-05-13T10:03:29.063Z,1.90
2019-05-13T10:05:54.682Z,2.07
2019-05-13T10:08:24.898Z,1.60
2019-05-13T10:10:54.329Z,1.67
2019-05-13T10:13:23.806Z,1.63
2019-05-13T10:15:53.305Z,1.67
2019-05-13T10:18:22.711Z,1.90
2019-05-13T10:20:59.890Z,1.20
2019-05-13T10:23:32.494Z,1.70
2019-05-13T10:26:03.313Z,1.37
2019-05-13T10:28:32.336Z,1.33
2019-05-13T10:31:01.979Z,1.43
2019-05-13T10:33:32.166Z,2.17
2019-05-13T10:36:03.863Z,2.40
2019-05-13T10:38:33.536Z,1.70
2019-05-13T10:41:03.723Z,1.70
2019-05-13T10:43:40.186Z,1.70
2019-05-13T10:46:04.523Z,1.70
2019-05-13T10:48:33.962Z,1.60
2019-05-13T10:51:03.474Z,1.60
2019-05-13T10:53:32.969Z,1.53
2019-05-13T10:56:03.104Z,1.53
2019-05-13T10:58:33.307Z,1.70
2019-05-13T11:01:03.361Z,1.60
2019-05-13T11:03:33.311Z,1.43
2019-05-13T11:06:03.183Z,1.57
2019-05-13T11:08:33.405Z,1.93
2019-05-13T11:11:03.286Z,1.53
2019-05-13T11:13:50.587Z,1.60
2019-05-13T11:16:05.976Z,1.80
2019-05-13T11:20:06.914Z,1.92
2019-05-13T11:22:37.652Z,2.67
2019-05-13T11:25:07.375Z,2.00
2019-05-13T11:27:37.855Z,2.00
2019-05-13T11:30:07.998Z,1.45
2019-05-13T11:32:37.926Z,2.08
2019-05-13T11:35:07.636Z,1.45
2019-05-13T11:37:38.374Z,1.35
2019-05-13T11:40:07.876Z,1.85
2019-05-13T11:42:37.399Z,1.97
2019-05-13T11:45:08.563Z,2.37
2019-05-13T11:47:41.518Z,1.50
2019-05-13T11:50:11.629Z,2.22
2019-05-13T11:52:42.796Z,1.37
2019-05-13T11:55:13.149Z,2.00
2019-05-13T11:57:44.334Z,1.62
2019-05-13T12:00:13.940Z,2.05
2019-05-13T12:02:50.277Z,2.00
2019-05-13T12:05:14.699Z,1.60
2019-05-13T12:07:44.194Z,1.60
2019-05-13T12:10:13.698Z,1.62
2019-05-13T12:12:43.884Z,1.57
2019-05-13T12:15:27.138Z,2.25
2019-05-13T12:17:45.184Z,1.65
2019-05-13T12:20:16.791Z,1.50
2019-05-13T12:22:46.606Z,1.55
2019-05-13T12:25:16.258Z,1.52
2019-05-13T12:27:45.866Z,1.45
2019-05-13T12:30:15.339Z,1.87
2019-05-13T12:32:44.770Z,1.42
2019-05-13T12:35:14.163Z,1.57
2019-05-13T12:37:43.980Z,1.92
2019-05-13T12:40:13.479Z,1.43
2019-05-13T12:42:46.873Z,1.77
2019-05-13T12:45:14.626Z,1.62
2019-05-13T12:47:44.214Z,2.00
2019-05-13T12:50:14.007Z,1.30
2019-05-13T12:52:43.984Z,1.70
2019-05-13T12:55:14.223Z,1.50
2019-05-13T12:57:44.004Z,1.45
2019-05-13T13:00:13.512Z,1.27
2019-05-13T13:02:50.033Z,1.52
2019-05-13T13:05:20.349Z,1.60
2019-05-13T13:08:12.180Z,1.70
2019-05-13T13:10:17.260Z,2.00
2019-05-13T13:12:46.762Z,1.10
2019-05-13T13:15:35.934Z,1.87
2019-05-13T13:17:53.609Z,1.83
2019-05-13T13:20:24.304Z,1.80
2019-05-13T13:22:52.100Z,1.60
2019-05-13T13:25:23.774Z,2.07
2019-05-13T13:28:10.522Z,1.50
2019-05-13T13:30:24.553Z,1.60
2019-05-13T13:32:58.253Z,1.50
2019-05-13T13:35:27.659Z,1.53
2019-05-13T13:37:58.290Z,1.70
2019-05-13T13:40:29.754Z,1.77
2019-05-13T13:42:58.808Z,1.90
2019-05-13T13:45:28.542Z,1.60
2019-05-13T13:48:03.552Z,1.50
2019-05-13T13:50:33.287Z,1.67
2019-05-13T13:53:00.282Z,1.30
2019-05-13T13:55:32.145Z,1.90
2019-05-13T13:58:02.308Z,1.40
2019-05-13T14:00:40.638Z,1.43
2019-05-13T14:03:06.507Z,1.60
2019-05-13T14:05:36.258Z,1.73
2019-05-13T14:08:05.963Z,2.07
2019-05-13T14:10:35.566Z,1.50
2019-05-13T14:13:05.064Z,2.00
2019-05-13T14:15:34.580Z,1.33
2019-05-13T14:18:04.259Z,1.80
2019-05-13T14:20:33.788Z,1.53
2019-05-13T14:23:03.390Z,1.50
2019-05-13T14:25:33.008Z,1.67
2019-05-13T14:28:02.614Z,2.00
2019-05-13T14:30:32.518Z,1.70
2019-05-13T14:33:02.381Z,2.07
2019-05-13T14:35:32.036Z,2.00
2019-05-13T14:38:02.476Z,1.77
2019-05-13T14:40:32.327Z,2.33
2019-05-13T14:43:03.652Z,3.03
2019-05-13T14:45:33.227Z,2.20
2019-05-13T14:48:02.730Z,1.90
2019-05-13T14:50:32.234Z,1.60
